Time;durP1;ratioP1;P1;durP2;ratioP2;P2;SDS_P1;SDS_P2;PMS_P1;PMS_P2;Temp;Humidity;BMP_temperature;BMP_pressure;BME280_temperature;BME280_humidity;BME280_pressure;Samples;Min_cycle;Max_cycle;Signal;HPM_P1;HPM_P2
2023/12/23 00:00:08;;;;;;;2.90;1.10;;;;;;;0.40;64.95;94085.72;108112;1274;22544;-81
2023/12/23 00:02:37;;;;;;;4.40;1.70;;;;;;;0.41;65.03;94065.02;108168;1274;24268;-82
2023/12/23 00:05:07;;;;;;;3.60;1.50;;;;;;;0.42;65.32;94064.80;108142;1282;22591;-82
2023/12/23 00:07:36;;;;;;;3.20;1.20;;;;;;;0.38;65.07;94060.99;108111;1275;22523;-82
2023/12/23 00:10:07;;;;;;;4.50;1.30;;;;;;;0.36;65.57;94064.61;108106;1280;22608;-82
2023/12/23 00:12:36;;;;;;;3.30;1.90;;;;;;;0.34;65.91;94068.34;108140;1281;22532;-82
2023/12/23 00:15:05;;;;;;;3.30;1.70;;;;;;;0.35;66.43;94066.46;108092;1276;25334;-82
2023/12/23 00:17:34;;;;;;;3.10;1.00;;;;;;;0.35;67.31;94065.57;108112;1277;26933;-82
2023/12/23 00:20:05;;;;;;;4.30;1.30;;;;;;;0.34;67.47;94063.91;108133;1281;25416;-82
2023/12/23 00:22:34;;;;;;;4.10;1.30;;;;;;;0.35;67.80;94075.63;108144;1281;23251;-82
2023/12/23 00:25:03;;;;;;;4.20;1.40;;;;;;;0.35;68.16;94076.98;108100;1271;22542;-82
2023/12/23 00:27:32;;;;;;;4.20;1.40;;;;;;;0.35;68.33;94096.27;108113;1281;22581;-82
2023/12/23 00:30:01;;;;;;;3.90;1.10;;;;;;;0.35;68.50;94103.77;108092;1281;22672;-82
2023/12/23 00:32:30;;;;;;;3.30;1.20;;;;;;;0.34;68.11;94094.40;108151;1280;22991;-82
2023/12/23 00:34:58;;;;;;;3.90;1.80;;;;;;;0.36;65.89;94099.54;108092;1277;23933;-82
2023/12/23 00:37:29;;;;;;;2.00;0.90;;;;;;;0.38;63.22;94086.58;108062;1281;25982;-82
2023/12/23 00:39:58;;;;;;;1.10;0.50;;;;;;;0.39;63.28;94099.50;108127;1281;22520;-82
2023/12/23 00:42:28;;;;;;;1.60;0.50;;;;;;;0.36;63.30;94080.92;108083;1275;22511;-82
2023/12/23 00:44:59;;;;;;;3.30;0.90;;;;;;;0.33;63.02;94080.96;108106;1281;24113;-82
2023/12/23 00:47:27;;;;;;;2.70;0.60;;;;;;;0.32;63.47;94073.16;108079;1281;22658;-82
2023/12/23 00:49:58;;;;;;;3.70;1.20;;;;;;;0.32;63.35;94069.88;108150;1281;23876;-82
2023/12/23 00:52:28;;;;;;;1.90;0.80;;;;;;;0.31;63.99;94087.87;108114;1281;22542;-82
2023/12/23 00:54:59;;;;;;;3.10;1.10;;;;;;;0.27;64.41;94098.77;108098;1281;24238;-82
2023/12/23 00:57:29;;;;;;;2.00;0.80;;;;;;;0.26;65.23;94097.42;108099;1279;22534;-82
2023/12/23 00:59:57;;;;;;;4.10;1.40;;;;;;;0.24;65.31;94105.42;108202;1281;22530;-82
2023/12/23 01:02:26;;;;;;;2.80;1.20;;;;;;;0.26;65.80;94092.48;108123;1281;25255;-82
2023/12/23 01:04:55;;;;;;;2.90;1.10;;;;;;;0.23;66.03;94103.10;108084;1281;22547;-82
2023/12/23 01:07:26;;;;;;;1.70;0.70;;;;;;;0.19;66.38;94106.15;108088;1273;25404;-82
2023/12/23 01:09:57;;;;;;;3.80;1.30;;;;;;;0.18;66.85;94117.69;108099;1281;24013;-82
2023/12/23 01:12:28;;;;;;;3.00;1.00;;;;;;;0.24;66.74;94116.48;108182;1282;22606;-82
2023/12/23 01:14:57;;;;;;;5.60;1.30;;;;;;;0.32;66.49;94128.71;108085;1281;26442;-82
2023/12/23 01:17:25;;;;;;;1.40;0.90;;;;;;;0.35;66.37;94122.58;108083;1281;23635;-82
2023/12/23 01:19:53;;;;;;;2.50;1.40;;;;;;;0.33;66.25;94124.01;108113;1281;22530;-82
2023/12/23 01:22:21;;;;;;;3.80;1.10;;;;;;;0.32;66.53;94123.71;108109;1281;25396;-82
2023/12/23 01:24:50;;;;;;;4.90;1.50;;;;;;;0.33;66.36;94126.20;108096;1259;22530;-82
2023/12/23 01:27:18;;;;;;;3.00;0.90;;;;;;;0.33;66.48;94109.37;108023;1274;22670;-82
2023/12/23 01:29:46;;;;;;;5.10;1.60;;;;;;;0.32;66.45;94110.10;108075;1275;23374;-83
2023/12/23 01:32:15;;;;;;;3.30;1.40;;;;;;;0.31;66.31;94105.06;108108;1281;22534;-82
2023/12/23 01:34:43;;;;;;;3.60;1.10;;;;;;;0.24;66.28;94111.31;108116;1274;22537;-82
2023/12/23 01:37:11;;;;;;;2.60;1.30;;;;;;;0.17;66.32;94105.50;108105;1281;22608;-82
2023/12/23 01:39:40;;;;;;;1.10;0.40;;;;;;;0.18;65.86;94108.67;108110;1274;22598;-82
2023/12/23 01:42:08;;;;;;;3.10;1.20;;;;;;;0.16;65.68;94096.50;108134;1281;23870;-83
2023/12/23 01:44:36;;;;;;;0.90;0.50;;;;;;;0.15;65.36;94103.44;108104;1280;22537;-83
2023/12/23 01:47:05;;;;;;;4.30;1.60;;;;;;;0.08;65.70;94110.47;108120;1281;22520;-83
2023/12/23 01:49:35;;;;;;;14.30;1.60;;;;;;;0.05;65.88;94108.57;108095;1275;22909;-83
2023/12/23 01:52:05;;;;;;;5.80;1.30;;;;;;;0.08;65.89;94106.45;108115;1280;22720;-83
2023/12/23 01:54:34;;;;;;;2.30;1.20;;;;;;;0.06;66.40;94113.20;108158;1282;22551;-83
2023/12/23 01:57:04;;;;;;;3.70;1.40;;;;;;;-0.01;66.72;94108.61;108062;1274;25196;-83
2023/12/23 01:59:33;;;;;;;4.10;1.90;;;;;;;-0.04;66.81;94121.14;108119;1275;22553;-83
2023/12/23 02:02:04;;;;;;;2.60;0.80;;;;;;;-0.04;67.47;94116.45;108104;1275;22553;-83
2023/12/23 02:04:33;;;;;;;3.10;0.90;;;;;;;-0.05;66.62;94112.70;108141;1281;23757;-82
2023/12/23 02:07:01;;;;;;;2.20;1.10;;;;;;;-0.02;65.70;94116.10;108048;1279;22577;-83
2023/12/23 02:09:29;;;;;;;1.50;0.90;;;;;;;-0.03;65.70;94111.17;108085;1282;22549;-83
2023/12/23 02:12:09;;;;;;;4.90;1.00;;;;;;;-0.04;65.54;94117.48;108113;1281;25412;-83
2023/12/23 02:14:43;;;;;;;2.90;0.70;;;;;;;-0.09;65.97;94127.32;108121;1275;22569;-83
2023/12/23 02:17:14;;;;;;;2.90;1.00;;;;;;;-0.10;65.88;94130.45;108069;1282;22551;-83
2023/12/23 02:19:42;;;;;;;4.30;1.50;;;;;;;-0.06;65.50;94123.77;108118;1282;22541;-83
2023/12/23 02:22:11;;;;;;;8.70;1.80;;;;;;;-0.06;65.52;94119.11;108084;1282;22546;-83
2023/12/23 02:24:39;;;;;;;4.60;1.30;;;;;;;-0.04;65.41;94124.56;108135;1275;22525;-83
2023/12/23 02:27:12;;;;;;;2.80;0.70;;;;;;;-0.03;65.58;94131.27;108085;1282;23772;-83
2023/12/23 02:29:54;;;;;;;1.50;0.60;;;;;;;-0.04;65.75;94129.09;108102;1279;24284;-83
2023/12/23 02:32:23;;;;;;;3.10;1.10;;;;;;;-0.08;66.18;94136.47;108117;1282;22579;-83
2023/12/23 02:34:54;;;;;;;3.30;1.30;;;;;;;-0.08;66.29;94143.61;108110;1281;25444;-82
2023/12/23 02:37:22;;;;;;;1.30;0.80;;;;;;;-0.06;66.69;94149.31;108116;1282;25493;-83
2023/12/23 02:39:50;;;;;;;1.70;0.90;;;;;;;-0.04;67.14;94157.23;108143;1282;22556;-83
2023/12/23 02:42:19;;;;;;;4.80;1.30;;;;;;;-0.04;67.76;94158.58;108129;1281;22722;-83
2023/12/23 02:44:47;;;;;;;2.00;1.10;;;;;;;-0.02;67.99;94165.33;108088;1279;25047;-82
2023/12/23 02:47:15;;;;;;;6.20;1.40;;;;;;;-0.03;68.23;94160.90;108050;1275;22533;-83
2023/12/23 02:49:43;;;;;;;2.00;1.00;;;;;;;-0.05;68.28;94166.77;108124;1281;25511;-83
2023/12/23 02:52:11;;;;;;;1.30;0.70;;;;;;;-0.04;68.65;94164.93;108111;1280;22549;-83
2023/12/23 02:54:42;;;;;;;3.30;1.30;;;;;;;-0.01;68.83;94163.45;108090;1275;24195;-83
2023/12/23 02:57:10;;;;;;;2.30;1.00;;;;;;;0.01;68.70;94178.36;108117;1275;22519;-83
2023/12/23 02:59:38;;;;;;;3.90;0.90;;;;;;;-0.00;68.68;94173.56;108072;1282;22570;-83
2023/12/23 03:02:07;;;;;;;2.80;1.10;;;;;;;0.03;68.50;94169.48;108107;1279;22548;-83
2023/12/23 03:04:35;;;;;;;2.10;0.70;;;;;;;0.04;68.61;94166.98;108108;1262;22527;-82
2023/12/23 03:07:06;;;;;;;0.60;0.50;;;;;;;0.04;68.45;94172.40;108121;1282;26524;-83
2023/12/23 03:09:35;;;;;;;5.20;1.40;;;;;;;0.04;68.38;94162.91;108051;1282;85058;-82
2023/12/23 03:12:04;;;;;;;6.10;1.20;;;;;;;0.09;69.40;94163.53;108100;1280;23872;-82
2023/12/23 03:14:33;;;;;;;2.20;1.10;;;;;;;0.12;69.24;94154.60;108155;1282;25567;-83
2023/12/23 03:17:01;;;;;;;3.00;1.10;;;;;;;0.09;69.11;94146.04;108104;1278;25421;-83
2023/12/23 03:19:32;;;;;;;1.70;1.00;;;;;;;0.07;69.31;94152.52;108099;1281;22558;-83
2023/12/23 03:22:01;;;;;;;3.20;0.80;;;;;;;0.06;70.11;94149.14;108095;1281;23550;-83
2023/12/23 03:24:29;;;;;;;2.50;0.70;;;;;;;0.04;70.64;94160.05;108114;1282;22610;-82
2023/12/23 03:27:00;;;;;;;2.10;0.80;;;;;;;0.02;70.85;94173.67;108095;1278;22539;-82
2023/12/23 03:29:29;;;;;;;2.10;0.70;;;;;;;-0.01;70.74;94183.24;108101;1281;24188;-82
2023/12/23 03:31:57;;;;;;;2.70;1.00;;;;;;;-0.03;70.98;94176.33;108141;1275;22552;-82
2023/12/23 03:34:28;;;;;;;1.50;0.70;;;;;;;-0.03;70.91;94190.13;108105;1282;22560;-83
2023/12/23 03:36:56;;;;;;;0.40;0.30;;;;;;;-0.06;71.06;94205.79;108056;1282;23383;-82
2023/12/23 03:39:27;;;;;;;2.00;0.70;;;;;;;-0.07;71.04;94198.83;108132;1271;22588;-82
2023/12/23 03:41:55;;;;;;;2.40;0.70;;;;;;;-0.10;70.93;94204.73;108116;1282;23852;-83
2023/12/23 03:44:26;;;;;;;1.30;0.60;;;;;;;-0.11;71.13;94226.60;108147;1281;22841;-83
2023/12/23 03:46:56;;;;;;;0.40;0.30;;;;;;;-0.11;70.91;94226.71;108100;1279;24198;-83
2023/12/23 03:49:24;;;;;;;1.40;0.60;;;;;;;-0.11;70.99;94215.52;108083;1281;23470;-83
2023/12/23 03:51:53;;;;;;;0.60;0.40;;;;;;;-0.10;71.58;94230.60;108119;1282;22535;-82
2023/12/23 03:54:21;;;;;;;2.50;0.30;;;;;;;-0.13;72.27;94238.85;108123;1275;22500;-82
2023/12/23 03:56:49;;;;;;;2.50;0.40;;;;;;;-0.17;72.67;94260.16;108085;1281;22627;-82
2023/12/23 03:59:18;;;;;;;0.80;0.60;;;;;;;-0.21;73.87;94262.27;108129;1275;22527;-82
2023/12/23 04:01:46;;;;;;;1.30;0.50;;;;;;;-0.22;74.19;94259.16;108131;1261;22580;-83
2023/12/23 04:04:14;;;;;;;1.00;0.30;;;;;;;-0.25;74.80;94262.20;108079;1282;25061;-83
2023/12/23 04:06:42;;;;;;;1.80;0.80;;;;;;;-0.29;75.00;94263.14;108086;1271;23719;-82
2023/12/23 04:09:10;;;;;;;3.80;1.00;;;;;;;-0.34;75.29;94261.86;108084;1274;22538;-82
2023/12/23 04:11:38;;;;;;;3.00;0.70;;;;;;;-0.40;75.77;94255.33;108096;1282;22654;-82
2023/12/23 04:14:07;;;;;;;2.80;1.10;;;;;;;-0.44;75.55;94260.70;108105;1282;22541;-82
2023/12/23 04:16:39;;;;;;;1.20;0.70;;;;;;;-0.48;75.87;94262.13;108113;1280;22585;-82
2023/12/23 04:19:07;;;;;;;1.50;1.00;;;;;;;-0.48;75.73;94264.63;108103;1282;22560;-83
2023/12/23 04:21:36;;;;;;;1.80;0.70;;;;;;;-0.48;75.72;94270.09;108103;1277;25438;-82
2023/12/23 04:24:06;;;;;;;1.80;1.00;;;;;;;-0.48;76.32;94278.05;108055;1282;23833;-83
2023/12/23 04:26:35;;;;;;;2.20;0.70;;;;;;;-0.48;76.89;94279.41;108121;1278;25442;-82
2023/12/23 04:29:04;;;;;;;5.50;1.80;;;;;;;-0.49;77.25;94279.05;108098;1282;22556;-82
2023/12/23 04:31:34;;;;;;;3.90;0.70;;;;;;;-0.49;77.25;94298.41;108156;1281;26451;-82
2023/12/23 04:34:03;;;;;;;3.60;0.90;;;;;;;-0.49;77.48;94309.49;108127;1281;22586;-82
2023/12/23 04:36:32;;;;;;;1.40;0.80;;;;;;;-0.49;77.43;94306.58;108091;1281;27657;-82
2023/12/23 04:39:03;;;;;;;2.40;1.00;;;;;;;-0.50;77.48;94313.66;108095;1280;23814;-83
2023/12/23 04:41:32;;;;;;;1.90;0.80;;;;;;;-0.51;77.55;94328.40;108117;1281;22549;-82
2023/12/23 04:44:01;;;;;;;2.40;1.20;;;;;;;-0.51;77.82;94329.07;108122;1282;22494;-82
2023/12/23 04:46:29;;;;;;;1.50;0.50;;;;;;;-0.52;77.77;94328.20;108080;1281;22542;-82
2023/12/23 04:48:58;;;;;;;4.40;1.50;;;;;;;-0.54;78.01;94328.67;108136;1275;22536;-82
2023/12/23 04:51:26;;;;;;;2.00;0.70;;;;;;;-0.54;77.72;94339.50;108103;1282;24283;-82
2023/12/23 04:53:54;;;;;;;2.20;0.80;;;;;;;-0.57;77.52;94354.11;108107;1281;25545;-82
2023/12/23 04:56:23;;;;;;;5.50;1.50;;;;;;;-0.57;77.32;94337.77;108092;1282;22531;-82
2023/12/23 04:58:56;;;;;;;0.80;0.30;;;;;;;-0.58;77.07;94362.70;108108;1275;23906;-83
2023/12/23 05:01:25;;;;;;;1.00;0.70;;;;;;;-0.60;77.06;94354.11;108115;1281;22530;-82
2023/12/23 05:03:54;;;;;;;3.30;0.80;;;;;;;-0.62;77.29;94369.99;108155;1265;22547;-82
2023/12/23 05:06:22;;;;;;;2.20;0.80;;;;;;;-0.63;77.28;94376.81;108103;1281;24041;-83
2023/12/23 05:08:50;;;;;;;3.50;1.00;;;;;;;-0.63;77.14;94376.13;108128;1282;22535;-82
2023/12/23 05:11:19;;;;;;;1.90;0.50;;;;;;;-0.62;77.12;94383.00;108082;1281;25367;-82
2023/12/23 05:13:47;;;;;;;2.40;1.10;;;;;;;-0.63;77.17;94391.80;108107;1282;22865;-82
2023/12/23 05:16:18;;;;;;;2.90;1.40;;;;;;;-0.63;77.54;94397.63;108145;1281;22806;-82
2023/12/23 05:18:46;;;;;;;2.30;0.80;;;;;;;-0.64;77.20;94410.85;108098;1281;22530;-82
2023/12/23 05:21:14;;;;;;;4.70;1.70;;;;;;;-0.65;77.60;94412.58;108126;1281;22605;-82
2023/12/23 05:23:42;;;;;;;3.20;0.80;;;;;;;-0.66;77.42;94440.37;108095;1281;23892;-82
2023/12/23 05:26:11;;;;;;;3.40;1.00;;;;;;;-0.67;77.29;94436.61;108044;1281;22534;-82
2023/12/23 05:28:39;;;;;;;2.10;1.20;;;;;;;-0.65;76.53;94434.59;108112;1281;22534;-82
2023/12/23 05:31:07;;;;;;;3.40;1.10;;;;;;;-0.66;76.31;94439.89;108129;1282;22541;-82
2023/12/23 05:33:35;;;;;;;2.50;1.00;;;;;;;-0.65;75.92;94401.70;108082;1275;24014;-82
2023/12/23 05:36:04;;;;;;;1.80;0.70;;;;;;;-0.64;75.50;94440.10;108100;1281;25496;-82
2023/12/23 05:38:35;;;;;;;0.80;0.50;;;;;;;-0.66;75.88;94457.79;108100;1281;22648;-82
2023/12/23 05:41:03;;;;;;;3.60;0.80;;;;;;;-0.68;76.14;94457.23;108091;1281;22549;-82
2023/12/23 05:43:31;;;;;;;2.40;0.90;;;;;;;-0.68;76.26;94466.55;108116;1281;22532;-82
2023/12/23 05:46:04;;;;;;;2.20;0.70;;;;;;;-0.71;76.11;94475.69;108133;1283;22530;-82
2023/12/23 05:48:32;;;;;;;2.10;0.60;;;;;;;-0.75;75.79;94497.79;108118;1281;22629;-82
2023/12/23 05:51:00;;;;;;;2.00;0.80;;;;;;;-0.77;75.44;94482.09;108110;1280;25432;-82
2023/12/23 05:53:29;;;;;;;3.50;1.10;;;;;;;-0.78;75.03;94497.02;108131;1281;22530;-82
2023/12/23 05:55:57;;;;;;;2.30;1.10;;;;;;;-0.80;75.37;94511.21;108130;1260;25393;-82
2023/12/23 05:58:26;;;;;;;2.60;0.60;;;;;;;-0.78;74.80;94519.44;108084;1280;24499;-82
2023/12/23 06:00:55;;;;;;;1.40;0.90;;;;;;;-0.78;74.43;94518.23;108127;1280;22534;-82
2023/12/23 06:03:24;;;;;;;1.20;0.80;;;;;;;-0.77;74.27;94512.15;108118;1272;25462;-82
2023/12/23 06:05:52;;;;;;;3.30;1.10;;;;;;;-0.79;74.01;94517.10;108115;1281;22540;-82
2023/12/23 06:08:20;;;;;;;2.50;0.90;;;;;;;-0.80;73.43;94530.73;108125;1281;22544;-82
2023/12/23 06:10:51;;;;;;;2.00;0.70;;;;;;;-0.80;73.45;94530.78;108118;1280;24170;-82
2023/12/23 06:13:19;;;;;;;2.30;1.10;;;;;;;-0.79;73.09;94536.25;108123;1281;25487;-81
2023/12/23 06:15:48;;;;;;;1.70;0.90;;;;;;;-0.80;73.11;94546.45;108096;1282;25307;-81
2023/12/23 06:18:16;;;;;;;3.00;1.40;;;;;;;-0.80;72.75;94581.92;108105;1275;22520;-82
2023/12/23 06:20:45;;;;;;;3.80;1.00;;;;;;;-0.82;73.16;94589.62;108077;1281;22525;-82
2023/12/23 06:23:13;;;;;;;3.10;1.10;;;;;;;-0.84;72.81;94608.02;108090;1264;23310;-82
2023/12/23 06:25:42;;;;;;;4.20;0.70;;;;;;;-0.85;71.96;94575.39;108072;1280;28657;-82
2023/12/23 06:28:12;;;;;;;1.10;0.60;;;;;;;-0.87;71.62;94588.48;108106;1281;24180;-82
2023/12/23 06:30:40;;;;;;;4.20;1.10;;;;;;;-0.88;71.27;94602.43;108092;1282;24169;-82
2023/12/23 06:33:09;;;;;;;3.30;1.30;;;;;;;-0.90;71.00;94603.69;108135;1282;22523;-82
2023/12/23 06:35:37;;;;;;;2.90;1.20;;;;;;;-0.91;69.84;94616.84;108088;1281;22912;-82
2023/12/23 06:38:05;;;;;;;4.40;0.90;;;;;;;-0.92;70.29;94606.85;108109;1282;22571;-82
2023/12/23 06:40:34;;;;;;;3.80;0.90;;;;;;;-0.95;70.38;94603.52;108101;1281;22640;-82
2023/12/23 06:43:03;;;;;;;4.80;1.10;;;;;;;-0.96;70.44;94628.02;108091;1281;22535;-82
2023/12/23 06:45:34;;;;;;;0.90;0.70;;;;;;;-0.99;70.81;94662.27;108119;1278;22537;-82
2023/12/23 06:48:02;;;;;;;4.20;1.40;;;;;;;-1.02;70.91;94659.86;108089;1274;24225;-81
2023/12/23 06:50:31;;;;;;;0.90;0.80;;;;;;;-1.05;71.00;94670.98;108150;1282;23375;-82
2023/12/23 06:53:02;;;;;;;3.60;0.90;;;;;;;-1.07;70.14;94658.91;108126;1281;22533;-82
2023/12/23 06:55:31;;;;;;;2.50;0.90;;;;;;;-1.06;69.69;94681.52;108125;1282;22640;-81
2023/12/23 06:58:00;;;;;;;3.60;1.50;;;;;;;-1.06;70.16;94687.05;108057;1278;22532;-82
2023/12/23 07:00:28;;;;;;;1.60;0.60;;;;;;;-1.08;70.14;94688.19;108090;1281;22524;-81
2023/12/23 07:02:59;;;;;;;3.50;1.00;;;;;;;-1.11;70.33;94694.83;108123;1275;22528;-81
2023/12/23 07:05:27;;;;;;;1.30;0.40;;;;;;;-1.14;69.90;94708.93;108075;1281;22553;-81
2023/12/23 07:07:56;;;;;;;1.70;0.70;;;;;;;-1.16;70.19;94716.77;108073;1277;22530;-81
2023/12/23 07:10:26;;;;;;;3.60;0.70;;;;;;;-1.17;70.25;94715.41;108088;1282;22653;-81
2023/12/23 07:12:55;;;;;;;1.50;0.80;;;;;;;-1.18;69.95;94722.48;108090;1281;23944;-81
2023/12/23 07:15:24;;;;;;;2.30;1.10;;;;;;;-1.18;69.79;94716.83;108128;1281;22536;-81
2023/12/23 07:17:52;;;;;;;1.10;0.70;;;;;;;-1.18;69.72;94735.64;108104;1280;22554;-81
2023/12/23 07:20:21;;;;;;;6.40;1.30;;;;;;;-1.14;69.86;94743.77;108105;1281;22561;-82
2023/12/23 07:22:50;;;;;;;2.30;0.90;;;;;;;-1.13;69.98;94744.92;108096;1282;24206;-81
2023/12/23 07:25:18;;;;;;;1.60;0.80;;;;;;;-1.10;70.04;94761.45;108093;1281;25279;-81
2023/12/23 07:27:46;;;;;;;1.50;0.80;;;;;;;-1.04;70.05;94752.95;108101;1278;23285;-82
2023/12/23 07:30:15;;;;;;;2.60;0.60;;;;;;;-1.06;70.03;94770.88;108086;1282;22523;-81
2023/12/23 07:32:43;;;;;;;1.80;1.10;;;;;;;-1.00;69.85;94779.08;108091;1282;22792;-81
2023/12/23 07:35:12;;;;;;;4.80;1.20;;;;;;;-1.01;69.46;94773.71;108067;1279;22683;-81
2023/12/23 07:37:41;;;;;;;3.10;1.00;;;;;;;-1.03;69.22;94777.86;108096;1279;22526;-81
2023/12/23 07:40:12;;;;;;;1.20;1.00;;;;;;;-1.04;68.98;94772.86;108098;1278;23756;-81
2023/12/23 07:42:40;;;;;;;1.20;0.80;;;;;;;-1.01;68.82;94776.41;108126;1281;22946;-81
2023/12/23 07:45:11;;;;;;;3.00;0.70;;;;;;;-1.03;69.01;94781.60;108139;1279;25203;-80
2023/12/23 07:47:40;;;;;;;1.80;0.80;;;;;;;-1.06;68.75;94775.45;108126;1275;23687;-81
2023/12/23 07:50:11;;;;;;;2.80;1.20;;;;;;;-1.09;69.09;94793.95;108093;1281;22707;-81
2023/12/23 07:52:39;;;;;;;1.50;1.00;;;;;;;-1.11;69.09;94794.19;108156;1279;22551;-81
2023/12/23 07:55:08;;;;;;;2.10;1.10;;;;;;;-1.15;69.67;94790.15;108102;1282;22575;-81
2023/12/23 07:57:37;;;;;;;1.50;0.60;;;;;;;-1.13;70.52;94800.99;108105;1281;22528;-81
2023/12/23 08:00:07;;;;;;;3.50;1.00;;;;;;;-1.12;70.96;94804.02;108140;1265;22540;-80
2023/12/23 08:02:35;;;;;;;2.30;1.20;;;;;;;-1.10;70.98;94794.20;108190;1276;22543;-81
2023/12/23 08:05:05;;;;;;;4.00;1.20;;;;;;;-1.11;70.99;94791.40;108070;1276;22502;-81
2023/12/23 08:07:33;;;;;;;3.30;2.30;;;;;;;-1.13;70.66;94794.44;108079;1281;22576;-81
2023/12/23 08:10:02;;;;;;;2.80;1.40;;;;;;;-1.16;70.78;94791.65;108118;1281;22507;-82
2023/12/23 08:12:31;;;;;;;4.20;2.50;;;;;;;-1.17;70.73;94780.67;108095;1281;22534;-81
2023/12/23 08:14:59;;;;;;;7.10;1.70;;;;;;;-1.16;70.34;94776.78;108107;1281;22531;-82
2023/12/23 08:17:30;;;;;;;5.60;3.00;;;;;;;-1.09;70.38;94780.11;108069;1281;22679;-81
2023/12/23 08:19:58;;;;;;;10.30;4.70;;;;;;;-1.05;69.68;94784.05;108097;1275;22924;-81
2023/12/23 08:22:26;;;;;;;12.10;4.90;;;;;;;-1.04;69.47;94776.20;108095;1281;22560;-81
2023/12/23 08:24:55;;;;;;;5.50;2.60;;;;;;;-1.03;69.79;94796.23;108103;1276;23006;-81
2023/12/23 08:27:23;;;;;;;4.80;1.80;;;;;;;-0.94;69.81;94796.44;108089;1282;22531;-82
2023/12/23 08:29:52;;;;;;;2.30;1.30;;;;;;;-0.73;69.58;94806.09;108075;1281;22556;-82
2023/12/23 08:32:24;;;;;;;1.70;1.00;;;;;;;-0.82;67.08;94783.05;108094;1281;25284;-82
2023/12/23 08:34:52;;;;;;;3.80;1.50;;;;;;;-0.90;66.83;94790.95;108132;1260;22530;-82
2023/12/23 08:37:22;;;;;;;4.40;1.90;;;;;;;-0.88;67.63;94798.71;108105;1279;24259;-82
2023/12/23 08:39:51;;;;;;;2.10;0.90;;;;;;;-0.86;68.32;94796.19;108128;1279;22540;-82
2023/12/23 08:42:20;;;;;;;5.20;2.00;;;;;;;-0.72;67.63;94800.69;108121;1281;22712;-82
2023/12/23 08:44:49;;;;;;;1.80;1.00;;;;;;;-0.67;67.14;94796.88;108114;1281;24064;-82
2023/12/23 08:47:18;;;;;;;1.90;1.10;;;;;;;-0.76;66.89;94801.77;108125;1276;22537;-82
2023/12/23 08:49:46;;;;;;;4.80;1.90;;;;;;;-0.84;66.11;94779.29;108116;1282;26482;-82
2023/12/23 08:52:15;;;;;;;3.00;1.00;;;;;;;-0.85;66.37;94802.02;108122;1281;22547;-82
2023/12/23 08:54:43;;;;;;;2.40;1.30;;;;;;;-0.80;66.93;94796.06;108132;1279;23783;-81
2023/12/23 08:57:11;;;;;;;3.20;0.80;;;;;;;-0.84;66.14;94786.67;108096;1279;23985;-82
2023/12/23 08:59:40;;;;;;;1.60;1.20;;;;;;;-0.84;66.25;94796.20;108115;1281;22618;-82
2023/12/23 09:02:08;;;;;;;1.10;0.80;;;;;;;-0.81;66.43;94795.17;108088;1281;25520;-82
2023/12/23 09:04:36;;;;;;;;;;;;;;;-0.76;66.75;94797.17;108143;1281;22522;-82
2023/12/23 09:07:06;;;;;;;2.40;1.20;;;;;;;-0.72;66.55;94786.59;108126;1281;22564;-82
2023/12/23 09:09:39;;;;;;;1.30;0.80;;;;;;;-0.65;66.78;94800.73;108158;1276;22539;-83
2023/12/23 09:12:08;;;;;;;2.90;1.00;;;;;;;-0.65;66.86;94799.80;108075;1281;22662;-82
2023/12/23 09:14:38;;;;;;;1.40;0.90;;;;;;;-0.61;66.88;94794.19;108129;1266;22638;-82
2023/12/23 09:17:06;;;;;;;1.90;1.00;;;;;;;-0.58;66.35;94795.60;108103;1281;25438;-82
2023/12/23 09:19:37;;;;;;;2.80;1.10;;;;;;;-0.46;66.30;94806.25;108108;1281;25364;-82
2023/12/23 09:22:05;;;;;;;5.90;1.30;;;;;;;-0.42;66.17;94808.36;108118;1281;22548;-82
2023/12/23 09:24:35;;;;;;;1.80;1.10;;;;;;;-0.41;66.38;94809.05;108097;1281;22541;-82
2023/12/23 09:27:04;;;;;;;2.00;0.80;;;;;;;-0.42;65.80;94811.78;108075;1280;22549;-82
2023/12/23 09:29:35;;;;;;;5.40;1.40;;;;;;;-0.36;65.84;94809.98;108101;1281;22540;-82
2023/12/23 09:32:04;;;;;;;2.50;1.00;;;;;;;-0.43;65.67;94813.65;108106;1280;22529;-82
2023/12/23 09:34:33;;;;;;;2.80;1.20;;;;;;;-0.59;65.53;94794.73;108132;1279;24259;-82
2023/12/23 09:37:02;;;;;;;1.40;1.00;;;;;;;-0.69;66.07;94791.25;108109;1277;22774;-82
2023/12/23 09:39:31;;;;;;;3.80;2.20;;;;;;;-0.76;66.22;94807.59;108118;1281;22658;-82
2023/12/23 09:42:01;;;;;;;3.10;1.50;;;;;;;-0.81;66.52;94804.75;108116;1281;26547;-82
2023/12/23 09:44:33;;;;;;;3.80;1.10;;;;;;;-0.77;66.96;94807.63;108100;1281;22549;-82
2023/12/23 09:47:04;;;;;;;6.10;2.20;;;;;;;-0.76;67.12;94801.34;108103;1277;22554;-82
2023/12/23 09:49:36;;;;;;;4.30;1.80;;;;;;;-0.79;67.77;94802.10;108128;1281;24254;-82
2023/12/23 09:52:07;;;;;;;2.60;1.30;;;;;;;-0.77;68.22;94791.40;108118;1280;22589;-82
2023/12/23 09:54:41;;;;;;;4.30;1.40;;;;;;;-0.78;67.93;94799.30;108123;1274;22534;-82
2023/12/23 09:57:11;;;;;;;4.20;1.70;;;;;;;-0.75;67.91;94795.63;108102;1274;22524;-82
2023/12/23 09:59:40;;;;;;;1.10;0.70;;;;;;;-0.67;68.34;94786.84;108111;1276;23406;-82
2023/12/23 10:02:09;;;;;;;2.60;1.20;;;;;;;-0.68;68.03;94786.88;108124;1278;22574;-82
2023/12/23 10:04:38;;;;;;;4.90;1.50;;;;;;;-0.69;68.52;94780.16;108114;1276;22549;-82
2023/12/23 10:07:06;;;;;;;1.70;1.00;;;;;;;-0.71;68.58;94775.40;108085;1267;23898;-82
2023/12/23 10:09:35;;;;;;;2.10;0.90;;;;;;;-0.72;68.64;94788.14;108134;1276;22117;-82
2023/12/23 10:12:04;;;;;;;3.70;1.50;;;;;;;-0.70;68.67;94762.73;108135;1281;22685;-82
2023/12/23 10:14:32;;;;;;;4.60;1.40;;;;;;;-0.70;68.51;94779.33;108194;1281;22726;-82
2023/12/23 10:17:01;;;;;;;4.40;2.60;;;;;;;-0.70;68.46;94775.95;108115;1281;26440;-82
2023/12/23 10:19:33;;;;;;;3.30;1.40;;;;;;;-0.65;68.77;94773.52;108131;1281;22839;-82
2023/12/23 10:22:04;;;;;;;2.40;1.10;;;;;;;-0.64;68.32;94772.84;108103;1276;22626;-82
2023/12/23 10:24:36;;;;;;;4.00;1.30;;;;;;;-0.64;67.98;94766.13;108112;1281;25264;-82
2023/12/23 10:27:06;;;;;;;3.80;1.50;;;;;;;-0.64;67.36;94765.09;108113;1274;23213;-82
2023/12/23 10:29:37;;;;;;;3.40;1.30;;;;;;;-0.63;67.42;94779.61;108104;1281;22533;-83
2023/12/23 10:32:08;;;;;;;4.60;1.80;;;;;;;-0.60;67.15;94772.18;108106;1266;22532;-82
2023/12/23 10:34:44;;;;;;;3.10;1.40;;;;;;;-0.57;66.87;94766.36;108132;1281;22498;-82
2023/12/23 10:37:13;;;;;;;4.80;1.40;;;;;;;-0.57;66.26;94772.55;108069;1281;22703;-82
2023/12/23 10:39:49;;;;;;;2.90;1.50;;;;;;;-0.56;66.26;94777.39;108124;1277;22533;-82
2023/12/23 10:42:23;;;;;;;2.00;1.00;;;;;;;-0.53;66.80;94757.23;108099;1282;22563;-82
2023/12/23 10:44:55;;;;;;;3.10;1.00;;;;;;;-0.50;66.24;94750.48;108102;1279;25294;-82
2023/12/23 10:47:26;;;;;;;3.80;1.70;;;;;;;-0.48;66.02;94758.55;108105;1281;25319;-82
2023/12/23 10:49:57;;;;;;;4.00;1.30;;;;;;;-0.45;65.90;94742.58;108085;1281;25949;-82
2023/12/23 10:52:29;;;;;;;5.30;1.70;;;;;;;-0.41;65.90;94751.77;108139;1279;22561;-82
2023/12/23 10:54:59;;;;;;;7.20;1.50;;;;;;;-0.36;65.32;94738.61;108116;1276;25779;-82
2023/12/23 10:57:31;;;;;;;4.30;1.30;;;;;;;-0.33;65.28;94735.08;108138;1260;22584;-82
2023/12/23 10:59:59;;;;;;;3.60;0.70;;;;;;;-0.30;64.96;94736.43;108094;1276;22647;-82
2023/12/23 11:02:29;;;;;;;4.80;1.00;;;;;;;-0.27;64.77;94723.28;108127;1270;23298;-82
2023/12/23 11:05:01;;;;;;;5.20;1.50;;;;;;;-0.23;64.58;94706.47;108153;1281;23818;-82
2023/12/23 11:07:36;;;;;;;3.40;1.30;;;;;;;-0.20;63.94;94697.46;108100;1281;22548;-83
2023/12/23 11:10:08;;;;;;;3.00;1.20;;;;;;;-0.17;63.52;94681.73;108118;1281;22531;-82
2023/12/23 11:12:39;;;;;;;2.60;0.80;;;;;;;-0.17;63.02;94699.60;108117;1280;22622;-82
2023/12/23 11:15:09;;;;;;;2.60;0.70;;;;;;;-0.16;63.36;94705.48;108096;1277;22543;-82
2023/12/23 11:17:43;;;;;;;5.90;0.90;;;;;;;-0.13;63.88;94682.33;108074;1281;25304;-82
2023/12/23 11:20:45;;;;;;;3.30;1.00;;;;;;;-0.12;63.55;94685.98;108152;1281;22567;-83
2023/12/23 11:23:33;;;;;;;3.50;1.10;;;;;;;-0.11;64.06;94684.89;108104;1281;23834;-83
2023/12/23 11:26:03;;;;;;;6.40;1.10;;;;;;;-0.09;63.79;94685.20;108069;1275;28955;-82
2023/12/23 11:28:34;;;;;;;2.50;1.10;;;;;;;-0.10;64.26;94680.05;108127;1275;24246;-82
2023/12/23 11:31:04;;;;;;;0.80;0.50;;;;;;;-0.13;64.18;94679.35;108101;1281;25478;-83
2023/12/23 11:33:35;;;;;;;2.40;1.00;;;;;;;-0.14;64.36;94675.81;108093;1276;23298;-83
2023/12/23 11:36:04;;;;;;;6.20;1.60;;;;;;;-0.13;64.08;94672.69;108095;1281;22534;-82